»·PEaware :: AAY35 KLAS-KFAT

AAY35 :: KLAS-KFAT

FLIGHT INFORMATION

Flight Status: Arrived
Operator:
Allegiant Air
More flights by this operator :: More flights under this callsign
Pilot: Anonymous 30951 (30951)
Aircraft: AIRBUS A320
(A320)
More flights by this aircraft type
Origin: KLAS McCarran Intl
United States
Destination: KFAT Fresno Yosemite Intl
United States
More flights between these airports :: More routes between these airports
Route: SHEAD1 KENNO Q162 CABAB FRA
File this flight plan on PilotEdge
Remarks: RMK / SIMBRIEF
Altitude:
(Current/Filed)
32,000ft
Speed:
(Current/Filed)
460kts
Departed: 10-Jan-21 08:51 AM
Arrived: 10-Jan-21 09:51 AM
Distance/Time
Traveled:
224nm/0:59
Distance/Time
To Go:
Arrived

Flight Plot

Page will automatically refresh every two minutes.

Flight plan parsing failed; only flown route is shown


Map Options




Map Legend


Flown Route
Filed Route
Departure Airport
Arrival Airport
Navaid (VOR, NDB)
Fix

Horizontal Profiles

Position Reports

Time Latitude Longitude Heading Altitude Ground
Speed
10-Jan-21 08:17 36.084829 -115.152324 47 2106ft 0kts
10-Jan-21 08:18 36.084829 -115.152324 47 2106ft 0kts
10-Jan-21 08:19 36.084829 -115.152324 47 2106ft 0kts
10-Jan-21 08:20 36.084829 -115.152324 47 2106ft 0kts
10-Jan-21 08:21 36.084829 -115.152324 47 2106ft 0kts
10-Jan-21 08:22 36.084829 -115.152324 47 2106ft 0kts
10-Jan-21 08:23 36.084829 -115.152324 47 2106ft 0kts
10-Jan-21 08:24 36.084829 -115.152324 47 2106ft 0kts
10-Jan-21 08:25 36.084829 -115.152324 47 2106ft 0kts
10-Jan-21 08:26 36.084829 -115.152324 47 2106ft 0kts
10-Jan-21 08:27 36.084829 -115.152324 47 2106ft 0kts
10-Jan-21 08:28 36.084829 -115.152324 47 2106ft 0kts
10-Jan-21 08:29 36.084829 -115.152324 47 2106ft 0kts
10-Jan-21 08:30 36.084829 -115.152324 47 2106ft 0kts
10-Jan-21 08:31 36.084829 -115.152324 47 2106ft 0kts
10-Jan-21 08:32 36.084821 -115.152334 47 2106ft 1kts
10-Jan-21 08:33 36.084390 -115.152830 25 2109ft 2kts
10-Jan-21 08:34 36.084216 -115.152924 358 2110ft 2kts
10-Jan-21 08:35 36.084134 -115.153468 244 2111ft 0kts
10-Jan-21 08:36 36.084134 -115.153468 244 2111ft 0kts
10-Jan-21 08:37 36.084134 -115.153468 245 2111ft 0kts
10-Jan-21 08:38 36.083873 -115.154161 244 2115ft 7kts
10-Jan-21 08:39 36.082741 -115.155613 156 2122ft 4kts
10-Jan-21 08:40 36.080168 -115.154152 155 2125ft 14kts
10-Jan-21 08:41 36.078655 -115.149201 95 2109ft 22kts
10-Jan-21 08:42 36.078255 -115.141375 90 2085ft 22kts
10-Jan-21 08:43 36.078276 -115.131888 88 2057ft 27kts
10-Jan-21 08:44 36.078260 -115.124893 91 2040ft 21kts
10-Jan-21 08:45 36.077656 -115.121731 130 2038ft 0kts
10-Jan-21 08:46 36.077656 -115.121731 130 2038ft 0kts
10-Jan-21 08:47 36.077656 -115.121731 130 2038ft 0kts
10-Jan-21 08:48 36.077656 -115.121731 130 2038ft 0kts
10-Jan-21 08:49 36.076421 -115.121653 270 2040ft 4kts
10-Jan-21 08:50 36.076658 -115.155158 270 3148ft 189kts
10-Jan-21 08:51 36.075450 -115.230273 260 6205ft 264kts
10-Jan-21 08:52 36.017213 -115.281137 199 6941ft 275kts
10-Jan-21 08:53 35.950316 -115.325599 225 7359ft 289kts
10-Jan-21 08:54 35.894521 -115.396933 242 10872ft 303kts
10-Jan-21 08:55 35.887765 -115.506706 276 13152ft 343kts
10-Jan-21 08:56 35.890057 -115.625888 275 16174ft 352kts
10-Jan-21 08:57 35.892200 -115.748484 274 18771ft 363kts
10-Jan-21 08:58 35.894211 -115.873220 274 19357ft 363kts
10-Jan-21 08:59 35.915406 -115.991671 310 19594ft 359kts
10-Jan-21 09:00 35.989213 -116.078266 316 21682ft 372kts
10-Jan-21 09:01 36.065923 -116.166839 316 23612ft 383kts
10-Jan-21 09:02 36.145036 -116.258289 315 25353ft 394kts
10-Jan-21 09:04 36.225995 -116.352115 315 26959ft 403kts
10-Jan-21 09:05 36.308875 -116.448452 315 28384ft 413kts
10-Jan-21 09:06 36.393469 -116.547080 314 29722ft 419kts
10-Jan-21 09:07 36.477502 -116.645386 314 31462ft 414kts
10-Jan-21 09:08 36.561742 -116.743113 317 32325ft 413kts
10-Jan-21 09:09 36.659529 -116.820359 324 32325ft 418kts
10-Jan-21 09:10 36.759012 -116.896061 324 32325ft 420kts
10-Jan-21 09:11 36.858688 -116.972106 323 32329ft 420kts
10-Jan-21 09:12 36.958045 -117.048124 323 32323ft 420kts
10-Jan-21 09:13 37.057617 -117.124524 323 32320ft 420kts
10-Jan-21 09:14 37.157378 -117.201194 323 32314ft 421kts
10-Jan-21 09:15 37.253655 -117.282601 311 32317ft 414kts
10-Jan-21 09:16 37.306618 -117.405974 279 32339ft 403kts
10-Jan-21 09:17 37.319641 -117.544701 276 32327ft 399kts
10-Jan-21 09:18 37.332087 -117.682948 275 32231ft 395kts
10-Jan-21 09:18 37.342369 -117.798007 275 29766ft 402kts
10-Jan-21 09:20 37.344754 -117.962899 265 26547ft 393kts
10-Jan-21 09:21 37.333450 -118.091742 265 25185ft 358kts
10-Jan-21 09:21 37.324329 -118.195834 266 24317ft 362kts
10-Jan-21 09:22 37.313215 -118.320540 266 24317ft 358kts
10-Jan-21 09:24 37.300051 -118.466236 266 24317ft 358kts
10-Jan-21 09:24 37.290613 -118.569209 266 23510ft 350kts
10-Jan-21 09:25 37.279457 -118.689763 266 21247ft 343kts
10-Jan-21 09:26 37.260052 -118.805864 260 19077ft 338kts
10-Jan-21 09:27 37.238078 -118.919090 260 16946ft 330kts
10-Jan-21 09:28 37.216739 -119.028375 259 14098ft 315kts
10-Jan-21 09:29 37.196229 -119.133113 258 11144ft 307kts
10-Jan-21 09:30 37.175579 -119.238059 258 10983ft 309kts
10-Jan-21 09:31 37.154798 -119.343025 258 10984ft 308kts
10-Jan-21 09:32 37.150076 -119.447564 273 10986ft 305kts
10-Jan-21 09:33 37.096658 -119.516024 189 10642ft 298kts
10-Jan-21 09:34 37.016265 -119.518022 181 8951ft 285kts
10-Jan-21 09:35 36.940438 -119.518040 181 7201ft 249kts
10-Jan-21 09:36 36.874217 -119.518393 180 5712ft 235kts
10-Jan-21 09:37 36.812214 -119.518794 180 4521ft 218kts
10-Jan-21 09:38 36.752348 -119.519191 180 3790ft 213kts
10-Jan-21 09:39 36.693609 -119.519568 180 3071ft 209kts
10-Jan-21 09:40 36.641423 -119.498438 130 3005ft 208kts
10-Jan-21 09:41 36.587778 -119.474322 166 3004ft 208kts
10-Jan-21 09:42 36.574237 -119.421533 34 3007ft 205kts
10-Jan-21 09:43 36.621391 -119.442710 302 3005ft 206kts
10-Jan-21 09:44 36.650771 -119.496383 306 2810ft 175kts
10-Jan-21 09:45 36.678598 -119.545224 306 2296ft 170kts
10-Jan-21 09:46 36.706271 -119.593805 305 1807ft 173kts
10-Jan-21 09:47 36.732255 -119.639395 305 1610ft 132kts
10-Jan-21 09:48 36.752958 -119.675689 305 924ft 127kts
10-Jan-21 09:49 36.773225 -119.711232 305 335ft 99kts
10-Jan-21 09:50 36.776517 -119.719011 275 337ft 0kts
10-Jan-21 09:51 36.776570 -119.719709 271 337ft 10kts
10-Jan-21 09:52 36.774599 -119.720219 155 334ft 6kts

Navigation Log

Ident Type
Flight plan parsing failed, navigation log unavailable